Data for 08/25/2016

Time Sea-Level Adjusted Pressure Absolute Pressure Temperature Relative Humidity Dew Point   
(mb) (inHg) (mb) (inHg) (C) (F) (%) (C) (F)
00:05 1028 30.36 857 25.31 9.6 49.2 58 1.9 35.4
00:10 1028 30.36 857 25.31 9.5 49.2 58 1.7 35
00:15 1028 30.36 857 25.31 9.6 49.2 58 1.8 35.2
00:20 1028 30.36 857 25.31 9.4 49 59 1.8 35.2
00:25 1028 30.36 857 25.31 9.3 48.8 59 1.7 35
00:30 1028 30.36 857 25.31 9.2 48.6 59 1.6 34.9
00:35 1028 30.36 857 25.31 9.1 48.4 59 1.6 35
00:40 1028 30.36 857 25.31 9 48.3 60 1.6 34.9
00:45 1028 30.36 857 25.31 8.9 48.1 60 1.6 34.9
00:50 1028 30.36 857 25.31 8.9 48 60 1.6 34.9
00:55 1028 30.36 857 25.31 8.8 47.9 60 1.6 34.9
01:00 1027 30.33 857 25.31 8.8 47.8 60 1.6 34.8
01:05 1028 30.36 857 25.31 8.8 47.8 61 1.7 35
01:10 1027 30.33 857 25.31 8.7 47.6 61 1.6 35
01:15 1027 30.33 857 25.31 8.6 47.5 61 1.6 34.8
01:20 1027 30.33 857 25.31 8.6 47.5 61 1.6 34.9
01:25 1027 30.33 857 25.31 8.5 47.3 61 1.5 34.8
01:30 1027 30.33 857 25.31 8.6 47.5 61 1.6 35
01:35 1027 30.33 857 25.31 8.5 47.3 62 1.7 35
01:40 1027 30.33 857 25.31 8.4 47 62 1.6 34.9
01:45 1027 30.33 857 25.31 8.3 46.9 63 1.6 34.9
01:50 1027 30.33 857 25.31 8.3 46.9 63 1.6 34.8
01:55 1027 30.33 857 25.31 8.2 46.8 63 1.7 35
02:00 1027 30.33 857 25.31 7.9 46.2 65 1.7 35.1
02:05 1027 30.33 856 25.28 7.6 45.8 65 1.5 34.7
02:10 1027 30.33 856 25.28 7.7 45.9 64 1.4 34.6
02:15 1027 30.33 856 25.28 7.7 45.9 64 1.5 34.7
02:20 1027 30.33 856 25.28 7.7 45.9 65 1.5 34.8
02:25 1027 30.33 856 25.28 7.6 45.6 65 1.5 34.6
02:30 1027 30.33 856 25.28 7.6 45.7 65 1.5 34.6
02:35 1027 30.33 856 25.28 7.7 45.8 64 1.4 34.5
02:40 1027 30.33 856 25.28 7.7 45.9 64 1.4 34.6
02:45 1027 30.33 856 25.28 7.8 46.1 64 1.5 34.7
02:50 1027 30.33 856 25.28 7.8 46.1 64 1.5 34.7
02:55 1027 30.33 856 25.28 7.8 46.1 64 1.5 34.8
03:00 1027 30.33 856 25.28 7.8 46 65 1.6 34.8
03:05 1027 30.33 857 25.31 7.6 45.7 66 1.6 34.9
03:10 1027 30.33 857 25.31 7.4 45.4 66 1.6 34.8
03:15 1027 30.33 857 25.31 7.4 45.4 66 1.5 34.6
03:20 1027 30.33 856 25.28 7.4 45.3 67 1.6 34.8
03:25 1027 30.33 856 25.28 7.1 44.7 68 1.5 34.8
03:30 1027 30.33 856 25.28 6.8 44.2 69 1.5 34.7
03:35 1027 30.33 856 25.28 6.5 43.7 70 1.4 34.6
03:40 1027 30.33 856 25.28 6.4 43.4 70 1.4 34.5
03:45 1027 30.33 856 25.28 6.2 43.2 71 1.4 34.5
03:50 1027 30.33 856 25.28 6.1 43 71 1.3 34.4
03:55 1027 30.33 856 25.28 6.1 43 71 1.3 34.3
04:00 1027 30.33 856 25.28 5.9 42.7 72 1.3 34.4
04:05 1027 30.33 856 25.28 5.7 42.3 72 1 33.8
04:10 1027 30.33 856 25.28 5.6 42.1 72 0.9 33.6
04:15 1027 30.33 856 25.28 5.6 42.1 71 0.8 33.5
04:20 1027 30.33 856 25.28 5.5 42 72 0.9 33.6
04:25 1027 30.33 856 25.28 5.6 42 72 0.9 33.7
04:30 1027 30.33 856 25.28 5.5 41.8 72 0.9 33.6
04:35 1027 30.33 856 25.28 5.4 41.7 72 0.8 33.4
04:40 1027 30.33 856 25.28 5.4 41.6 72 0.7 33.3
04:45 1027 30.33 856 25.28 5.4 41.7 72 0.7 33.2
04:50 1027 30.33 856 25.28 5.6 42 70 0.6 33.1
04:55 1027 30.33 856 25.28 5.8 42.5 70 0.8 33.4
05:00 1027 30.33 856 25.28 5.8 42.4 69 0.6 33
05:05 1027 30.33 856 25.28 5.9 42.6 69 0.7 33.2
05:10 1027 30.33 856 25.28 5.5 42 70 0.6 33
05:15 1027 30.33 856 25.28 5.2 41.4 71 0.4 32.8
05:20 1027 30.33 856 25.28 5.1 41.1 71 0.2 32.4
05:25 1027 30.33 856 25.28 5 40.9 71 0.2 32.4
05:30 1027 30.33 856 25.28 5 41 71 0.2 32.4
05:35 1027 30.33 856 25.28 5 41.1 71 0.2 32.3
05:40 1027 30.33 856 25.28 5 41 72 0.3 32.6
05:45 1027 30.33 856 25.28 4.9 40.9 72 0.3 32.5
05:50 1027 30.33 856 25.28 5 41 71 0.2 32.4
05:55 1027 30.33 856 25.28 5 41.1 71 0.2 32.3
06:00 1027 30.33 856 25.28 5 40.9 71 0.2 32.4
06:05 1026 30.3 856 25.28 4.9 40.9 71 0.1 32.2
06:10 1026 30.3 856 25.28 4.9 40.9 71 0.2 32.3
06:15 1026 30.3 856 25.28 4.9 40.8 71 0.1 32.2
06:20 1026 30.3 856 25.28 4.8 40.7 71 0.1 32.2
06:25 1026 30.3 856 25.28 4.8 40.7 71 -0 32
06:30 1026 30.3 855 25.25 4.9 40.8 71 0.2 32.3
06:35 1026 30.3 856 25.28 4.6 40.3 73 0.1 32.3
06:40 1026 30.3 856 25.28 4.5 40.1 73 0.1 32.1
06:45 1026 30.3 855 25.25 4.7 40.5 71 -0 32
06:50 1026 30.3 856 25.28 4.9 40.8 71 0.1 32.1
06:55 1026 30.3 855 25.25 4.9 40.8 71 0.1 32.1
07:00 1026 30.3 856 25.28 5 41 71 0.1 32.1
07:05 1026 30.3 856 25.28 5.1 41.2 70 0 32.1
07:10 1026 30.3 855 25.25 5.2 41.3 70 0.1 32.2
07:15 1026 30.3 856 25.28 5.2 41.3 70 0.1 32.2
07:20 1026 30.3 856 25.28 5.3 41.5 69 -0 32
07:25 1026 30.3 856 25.28 5.4 41.7 68 -0 32
07:30 1026 30.3 856 25.28 5.6 42.1 66 -0.2 31.6
07:35 1026 30.3 856 25.28 5.9 42.6 65 -0.1 31.8
07:40 1026 30.3 856 25.28 6.2 43.2 65 0.2 32.3
07:45 1027 30.33 856 25.28 6.4 43.5 64 0 32
07:50 1027 30.33 856 25.28 6.7 44.1 63 0.1 32.2
07:55 1027 30.33 856 25.28 7 44.6 62 0.2 32.4
08:00 1027 30.33 856 25.28 7.1 44.8 62 0.4 32.7
08:05 1027 30.33 856 25.28 7.5 45.6 61 0.5 32.9
08:10 1027 30.33 856 25.28 7.6 45.7 60 0.5 32.8
08:15 1027 30.33 856 25.28 8 46.3 60 0.7 33.3
08:20 1027 30.33 856 25.28 8.3 46.9 59 0.8 33.5
08:25 1027 30.33 856 25.28 9 48.1 57 0.9 33.7
08:30 1027 30.33 856 25.28 9.6 49.3 54 0.8 33.4
08:35 1027 30.33 856 25.28 9.8 49.7 54 1.1 34
08:40 1027 30.33 856 25.28 10.1 50.1 53 1.1 33.9
08:45 1027 30.33 856 25.28 10.4 50.7 52 1.1 34
08:50 1027 30.33 856 25.28 10.4 50.8 52 1.1 33.9
08:55 1027 30.33 856 25.28 10.5 51 51 1 33.8
09:00 1027 30.33 856 25.28 10.9 51.5 51 1.2 34.2
09:05 1027 30.33 856 25.28 11.1 51.9 50 1.2 34.2
09:10 1027 30.33 856 25.28 11.2 52.1 50 1.3 34.3
09:15 1027 30.33 856 25.28 11.5 52.8 49 1.2 34.2
09:20 1027 30.33 856 25.28 11.9 53.4 48 1.2 34.2
09:25 1027 30.33 856 25.28 12 53.5 48 1.4 34.6
09:30 1027 30.33 856 25.28 12.3 54.1 47 1.4 34.5
09:35 1027 30.33 856 25.28 12.3 54.1 46 1 33.9
09:40 1027 30.33 856 25.28 12.1 53.8 47 1.2 34.2
09:45 1027 30.33 856 25.28 12.6 54.7 45 0.9 33.7
09:50 1027 30.33 856 25.28 13 55.4 44 1.1 34
09:55 1027 30.33 856 25.28 13.1 55.6 45 1.4 34.5
10:00 1027 30.33 856 25.28 13.2 55.7 44 1.2 34.1
10:05 1026 30.3 856 25.28 13.1 55.5 44 1 33.9
10:10 1026 30.3 856 25.28 12.6 54.6 45 0.9 33.6
10:15 1026 30.3 856 25.28 12.5 54.4 46 1.2 34.1
10:20 1026 30.3 856 25.28 13.1 55.6 42 0.7 33.2
10:25 1026 30.3 856 25.28 14.2 57.6 41 1.1 34
10:30 1026 30.3 856 25.28 13.9 57 46 2.6 36.6
10:35 1026 30.3 856 25.28 13.4 56.1 43 1.1 34
10:40 1026 30.3 856 25.28 14.1 57.4 41 1.2 34.1
10:45 1026 30.3 856 25.28 14 57.2 44 2.1 35.8
10:50 1026 30.3 856 25.28 13.3 55.9 46 1.9 35.5
10:55 1026 30.3 855 25.25 13.1 55.5 45 1.3 34.4
11:00 1026 30.3 855 25.25 13.1 55.5 44 1.3 34.3
11:05 1026 30.3 855 25.25 14.4 57.8 40 1 33.8
11:10 1026 30.3 855 25.25 14.6 58.3 42 1.9 35.5
11:15 1026 30.3 855 25.25 14.5 58.1 39 0.9 33.6
11:20 1026 30.3 855 25.25 15.2 59.3 37 0.7 33.2
11:25 1026 30.3 855 25.25 15.6 60 36 0.8 33.4
11:30 1026 30.3 855 25.25 15.4 59.8 38 1.3 34.4
11:35 1026 30.3 855 25.25 15.5 59.9 36 0.7 33.2
11:40 1026 30.3 855 25.25 15.9 60.5 35 0.6 33
11:45 1026 30.3 855 25.25 15.6 60.1 37 1.1 34
11:50 1026 30.3 855 25.25 15.7 60.2 36 0.9 33.5
11:55 1026 30.3 855 25.25 16 60.7 34 0.4 32.7
12:00 1025 30.27 855 25.25 16.6 61.9 34 1 33.8
12:05 1025 30.27 855 25.25 16.2 61.2 35 0.8 33.4
12:10 1025 30.27 855 25.25 16 60.9 34 0.3 32.6
12:15 1025 30.27 855 25.25 16.9 62.4 33 0.8 33.5
12:20 1025 30.27 855 25.25 16.9 62.3 34 0.9 33.6
12:25 1025 30.27 854 25.22 16.8 62.3 32 0.1 32.2
12:30 1025 30.27 854 25.22 17.4 63.2 31 0.3 32.6
12:35 1025 30.27 854 25.22 18 64.3 30 0.2 32.4
12:40 1025 30.27 854 25.22 17.8 64 31 0.5 33
12:45 1025 30.27 854 25.22 17.5 63.5 30 -0.1 31.8
12:50 1025 30.27 854 25.22 17.8 64 31 0.4 32.8
12:55 1025 30.27 854 25.22 18.1 64.6 29 -0.1 31.8
13:00 1025 30.27 854 25.22 18 64.4 30 0.2 32.3
13:05 1025 30.27 854 25.22 17.9 64.3 31 0.5 32.9
13:10 1025 30.27 854 25.22 18.4 65.1 28 -0.5 31.2
13:15 1024 30.24 854 25.22 19.1 66.3 26 -0.6 30.9
13:20 1024 30.24 854 25.22 18.7 65.7 28 -0 31.9
13:25 1024 30.24 853 25.19 19.3 66.8 27 0 32
13:30 1024 30.24 853 25.19 18.9 66 27 -0.1 31.7
13:35 1024 30.24 853 25.19 17.7 63.9 28 -0.8 30.5
13:40 1024 30.24 853 25.19 17.7 63.8 30 0.2 32.3
13:45 1024 30.24 853 25.19 18 64.5 27 -1.3 29.7
13:50 1024 30.24 853 25.19 19.1 66.4 27 -0.2 31.7
13:55 1024 30.24 853 25.19 18 64.4 29 -0.4 31.3
14:00 1024 30.24 853 25.19 18.7 65.7 25 -1.5 29.3
14:05 1024 30.24 853 25.19 18.9 66 26 -1 30.3
14:10 1024 30.24 853 25.19 19.3 66.7 24 -1.5 29.3
14:15 1024 30.24 853 25.19 19.3 66.7 25 -0.9 30.4
14:20 1024 30.24 853 25.19 19.7 67.4 26 -0.4 31.3
14:25 1024 30.24 853 25.19 19.8 67.7 25 -0.7 30.8
14:30 1024 30.24 853 25.19 20.1 68.2 24 -1.2 29.8
14:35 1024 30.24 853 25.19 19.9 67.9 22 -2.1 28.2
14:40 1024 30.24 853 25.19 19.9 67.8 23 -1.6 29.2
14:45 1024 30.24 853 25.19 20.1 68.2 22 -2.1 28.2
14:50 1023 30.21 853 25.19 19.8 67.6 23 -1.5 29.3
14:55 1023 30.21 853 25.19 20.3 68.5 23 -1.6 29.2
15:00 1023 30.21 853 25.19 20.3 68.6 23 -1.5 29.3
15:05 1023 30.21 852 25.16 20.4 68.7 22 -1.9 28.5
15:10 1023 30.21 852 25.16 20.2 68.4 22 -2.1 28.2
15:15 1023 30.21 852 25.16 19.9 67.9 22 -2.3 27.8
15:20 1023 30.21 852 25.16 19.7 67.4 23 -1.8 28.8
15:25 1023 30.21 852 25.16 20.4 68.7 20 -3 26.5
15:30 1023 30.21 852 25.16 20.5 68.9 17 -5 23
15:35 1023 30.21 852 25.16 20.6 69.1 17 -5.4 22.2
15:40 1023 30.21 852 25.16 20.8 69.5 15 -7 19.4
15:45 1023 30.21 852 25.16 20.7 69.2 15 -6.9 19.5
15:50 1023 30.21 852 25.16 20.7 69.2 14 -7.7 18.1
15:55 1023 30.21 852 25.16 20.7 69.3 15 -6.9 19.6
16:00 1023 30.21 852 25.16 20.4 68.7 18 -4.8 23.3
16:05 1023 30.21 852 25.16 20 68.1 18 -4.9 23.3
16:10 1023 30.21 852 25.16 21.3 70.3 18 -4.1 24.7
16:15 1023 30.21 852 25.16 21 69.8 17 -4.5 23.9
16:20 1023 30.21 852 25.16 21.3 70.4 18 -4.1 24.6
16:25 1023 30.21 852 25.16 20.7 69.3 17 -4.8 23.4
16:30 1022 30.18 852 25.16 20.7 69.2 19 -3.3 26.1
16:35 1022 30.18 852 25.16 20.9 69.5 19 -3.4 25.9
16:40 1022 30.18 852 25.16 21.1 70 19 -3 26.7
16:45 1022 30.18 852 25.16 20.5 68.8 21 -2.3 27.8
16:50 1022 30.18 852 25.16 20.3 68.6 19 -3.6 25.6
16:55 1022 30.18 852 25.16 19.6 67.2 21 -3.2 26.2
17:00 1022 30.18 851 25.13 20.6 69.1 19 -3.8 25.2
17:05 1022 30.18 851 25.13 21.2 70.1 19 -3.1 26.3
17:10 1022 30.18 851 25.13 21 69.8 19 -3.5 25.8
17:15 1022 30.18 851 25.13 21 69.8 19 -3.6 25.5
17:20 1022 30.18 851 25.13 21 69.7 20 -2.9 26.8
17:25 1022 30.18 851 25.13 20.4 68.7 18 -4.8 23.4
17:30 1022 30.18 851 25.13 20 68 19 -4.2 24.4
17:35 1022 30.18 851 25.13 19.6 67.2 20 -4 24.8
17:40 1022 30.18 851 25.13 19.5 67 20 -4.2 24.5
17:45 1022 30.18 851 25.13 19.4 66.9 20 -3.9 25.1
17:50 1022 30.18 851 25.13 19.5 67.2 20 -4.2 24.5
17:55 1022 30.18 851 25.13 19.5 67 20 -3.7 25.3
18:00 1022 30.18 851 25.13 19.5 67 20 -3.7 25.4
18:05 1022 30.18 851 25.13 19.2 66.6 20 -4.3 24.3
18:10 1022 30.18 851 25.13 18.9 66.1 21 -4 24.8
18:15 1022 30.18 851 25.13 18.8 65.8 21 -4.1 24.5
18:20 1022 30.18 851 25.13 18.7 65.7 20 -4.5 23.9
18:25 1022 30.18 851 25.13 18.5 65.3 21 -4.1 24.7
18:30 1022 30.18 851 25.13 18.4 65.1 20 -4.7 23.5
18:35 1022 30.18 851 25.13 18.5 65.3 21 -4.2 24.4
18:40 1022 30.18 851 25.13 18.6 65.5 21 -4.2 24.4
18:45 1022 30.18 851 25.13 18.3 65 21 -4.2 24.5
18:50 1022 30.18 851 25.13 18.2 64.8 21 -4.2 24.4
18:55 1022 30.18 851 25.13 18.4 65.2 22 -3.7 25.4
19:00 1022 30.18 851 25.13 18.7 65.6 21 -4.1 24.6
19:05 1022 30.18 851 25.13 18.7 65.7 23 -2.9 26.8
19:10 1022 30.18 851 25.13 18.6 65.4 24 -2.1 28.2
19:15 1022 30.18 851 25.13 18.5 65.2 24 -2.2 28.1
19:20 1022 30.18 851 25.13 18.3 64.9 25 -2 28.4
19:25 1022 30.18 851 25.13 18.1 64.6 25 -2.1 28.2
19:30 1022 30.18 851 25.13 18 64.4 26 -1.7 28.9
19:35 1022 30.18 851 25.13 17.9 64.1 26 -1.6 29
19:40 1022 30.18 851 25.13 17.7 63.9 26 -1.7 28.9
19:45 1022 30.18 851 25.13 17.6 63.6 26 -2.2 28
19:50 1022 30.18 851 25.13 17.4 63.4 26 -2.2 28
19:55 1022 30.18 851 25.13 17.3 63.2 27 -2 28.5
20:00 1022 30.18 851 25.13 17.2 62.9 27 -1.9 28.5
20:05 1022 30.18 851 25.13 17 62.7 28 -1.6 29
20:10 1022 30.18 851 25.13 16.9 62.3 29 -1 30.2
20:15 1022 30.18 851 25.13 16.3 61.4 31 -0.7 30.7
20:20 1022 30.18 851 25.13 16.1 60.9 32 -0.5 31.1
20:25 1022 30.18 851 25.13 15.9 60.6 33 -0.1 31.9
20:30 1022 30.18 851 25.13 15.5 60 38 1.5 34.8
20:35 1022 30.18 851 25.13 14.9 58.9 42 2.1 35.9
20:40 1022 30.18 851 25.13 14.6 58.4 37 0.1 32.1
20:45 1022 30.18 851 25.13 14.3 57.7 43 1.8 35.2
20:50 1022 30.18 852 25.16 13.6 56.5 39 -0.1 31.7
20:55 1022 30.18 852 25.16 13.2 55.8 38 -0.8 30.5
21:00 1022 30.18 852 25.16 13.4 56.1 36 -1.4 29.4
21:05 1022 30.18 852 25.16 13.3 56 36 -1.3 29.6
21:10 1022 30.18 852 25.16 13.2 55.7 36 -1.7 29
21:15 1022 30.18 852 25.16 13.5 56.3 35 -1.5 29.4
21:20 1022 30.18 852 25.16 13.5 56.3 35 -1.6 29.1
21:25 1022 30.18 852 25.16 13.6 56.5 35 -1.5 29.2
21:30 1022 30.18 852 25.16 13.8 56.9 35 -1.3 29.6
21:35 1022 30.18 852 25.16 13.8 56.8 35 -1.2 29.8
21:40 1023 30.21 852 25.16 13.8 56.8 36 -1.1 30.1
21:45 1023 30.21 852 25.16 13.7 56.6 36 -1 30.2
21:50 1023 30.21 852 25.16 13.6 56.4 36 -1 30.2
21:55 1023 30.21 852 25.16 13.6 56.4 36 -1 30.2
22:00 1023 30.21 852 25.16 13.6 56.4 37 -0.9 30.5
22:05 1023 30.21 852 25.16 13.5 56.3 37 -0.7 30.8
22:10 1023 30.21 852 25.16 13.3 55.9 38 -0.8 30.6
22:15 1023 30.21 852 25.16 13.2 55.7 38 -0.8 30.6
22:20 1023 30.21 852 25.16 13.1 55.7 38 -0.8 30.6
22:25 1023 30.21 852 25.16 13.1 55.6 38 -0.8 30.6
22:30 1023 30.21 852 25.16 13.1 55.6 38 -1 30.3
22:35 1023 30.21 852 25.16 13.1 55.5 37 -1.1 30.1
22:40 1023 30.21 852 25.16 13 55.5 38 -0.9 30.4
22:45 1023 30.21 852 25.16 12.8 55.1 39 -0.8 30.5
22:50 1023 30.21 852 25.16 12.8 55 39 -0.6 30.9
22:55 1023 30.21 852 25.16 12.6 54.7 40 -0.6 31
23:00 1023 30.21 852 25.16 12.5 54.5 40 -0.6 31
23:05 1023 30.21 852 25.16 12.5 54.6 40 -0.6 30.9
23:10 1023 30.21 852 25.16 12.6 54.6 40 -0.6 30.8
23:15 1023 30.21 852 25.16 12.4 54.4 40 -0.9 30.5
23:20 1023 30.21 852 25.16 12.5 54.6 39 -0.8 30.5
23:25 1023 30.21 852 25.16 12.6 54.7 40 -0.6 30.8
23:30 1023 30.21 852 25.16 12.8 55.1 39 -0.7 30.8
23:35 1023 30.21 852 25.16 12.9 55.2 40 -0.4 31.3
23:40 1023 30.21 852 25.16 12.7 54.9 41 -0.3 31.5
23:45 1023 30.21 852 25.16 12.5 54.5 42 -0.1 31.8
23:50 1023 30.21 852 25.16 12 53.7 44 0.3 32.5
23:55 1023 30.21 852 25.16 11.5 52.7 46 0.3 32.5
24:00 1023 30.21 852 25.16 11.1 52.1 47 0.3 32.6